Time;durP1;ratioP1;P1;durP2;ratioP2;P2;SDS_P1;SDS_P2;PMS_P1;PMS_P2;Temp;Humidity;BMP_temperature;BMP_pressure;BME280_temperature;BME280_humidity;BME280_pressure;Samples;Min_cycle;Max_cycle;Signal;HPM_P1;HPM_P2
2021/07/10 00:00:12;;;;;;;11.88;10.77;;;15.20;99.90;;;;;;5054949;28;20120;-63
2021/07/10 00:02:38;;;;;;;11.75;10.55;;;15.30;99.90;;;;;;5053299;28;20040;-64
2021/07/10 00:05:06;;;;;;;11.77;10.68;;;15.30;99.90;;;;;;5052363;28;20047;-64
2021/07/10 00:07:32;;;;;;;14.23;12.82;;;15.30;99.90;;;;;;5044591;28;20116;-64
2021/07/10 00:10:06;;;;;;;13.20;11.90;;;15.40;99.90;;;;;;5051901;28;20056;-64
2021/07/10 00:12:32;;;;;;;13.82;12.20;;;15.40;99.90;;;;;;5047012;28;20049;-64
2021/07/10 00:14:58;;;;;;;12.98;11.73;;;15.30;99.90;;;;;;5053762;28;20098;-64
2021/07/10 00:17:23;;;;;;;12.45;11.30;;;15.30;99.90;;;;;;5050779;28;20083;-64
2021/07/10 00:19:52;;;;;;;14.82;12.85;;;15.30;99.90;;;;;;5054665;28;20482;-64
2021/07/10 00:22:18;;;;;;;12.80;11.60;;;15.30;99.90;;;;;;5049344;28;20037;-64
2021/07/10 00:24:45;;;;;;;14.70;13.20;;;15.30;99.90;;;;;;5053680;28;20411;-64
2021/07/10 00:27:10;;;;;;;15.00;13.32;;;15.30;99.90;;;;;;5052801;28;20045;-64
2021/07/10 00:29:36;;;;;;;14.15;12.85;;;15.30;99.90;;;;;;5052387;28;20029;-64
2021/07/10 00:32:02;;;;;;;15.32;13.73;;;15.30;99.90;;;;;;5054200;28;20123;-64
2021/07/10 00:34:27;;;;;;;16.55;14.05;;;15.10;99.90;;;;;;5052480;28;20051;-64
2021/07/10 00:36:53;;;;;;;13.52;12.10;;;15.10;99.90;;;;;;5053400;28;20041;-64
2021/07/10 00:39:19;;;;;;;14.45;13.05;;;15.00;99.90;;;;;;5053732;28;20037;-64
2021/07/10 00:41:44;;;;;;;15.15;13.65;;;15.00;99.90;;;;;;5053392;28;20049;-64
2021/07/10 00:44:10;;;;;;;17.50;15.10;;;14.90;99.90;;;;;;5057050;28;20037;-64
2021/07/10 00:46:36;;;;;;;18.80;16.33;;;14.90;99.90;;;;;;5053582;28;20037;-64
2021/07/10 00:49:01;;;;;;;20.17;18.08;;;14.90;99.90;;;;;;5052117;28;20037;-64
2021/07/10 00:51:27;;;;;;;20.08;17.88;;;14.80;99.90;;;;;;5052365;28;20091;-64
2021/07/10 00:53:53;;;;;;;20.73;18.02;;;14.80;99.90;;;;;;5053844;28;20033;-64
2021/07/10 00:56:19;;;;;;;22.23;18.95;;;14.80;99.90;;;;;;5053561;28;20045;-64
2021/07/10 00:58:45;;;;;;;24.20;19.27;;;14.80;99.90;;;;;;5052791;28;20040;-64
2021/07/10 01:01:11;;;;;;;25.67;21.15;;;14.80;99.90;;;;;;5053178;28;20029;-64
2021/07/10 01:03:44;;;;;;;23.67;20.55;;;14.80;99.90;;;;;;5053238;28;20091;-64
2021/07/10 01:06:10;;;;;;;25.02;20.98;;;14.70;99.90;;;;;;5053430;28;20099;-64
2021/07/10 01:08:37;;;;;;;24.33;20.65;;;14.70;99.90;;;;;;5053210;28;20478;-64
2021/07/10 01:11:03;;;;;;;26.80;21.42;;;14.70;99.90;;;;;;5045885;28;20051;-64
2021/07/10 01:13:29;;;;;;;28.02;22.25;;;14.70;99.90;;;;;;5053284;28;20048;-64
2021/07/10 01:15:56;;;;;;;30.95;23.55;;;14.60;99.90;;;;;;5050358;28;20041;-64
2021/07/10 01:18:21;;;;;;;27.38;22.30;;;14.60;99.90;;;;;;5033518;28;20046;-64
2021/07/10 01:20:49;;;;;;;21.95;18.45;;;14.60;99.90;;;;;;5042759;28;20033;-64
2021/07/10 01:23:14;;;;;;;16.30;14.32;;;14.50;99.90;;;;;;5065162;28;20043;-64
2021/07/10 01:25:40;;;;;;;22.40;16.85;;;14.50;99.90;;;;;;5063602;28;20033;-64
2021/07/10 01:28:08;;;;;;;21.23;16.30;;;14.40;99.90;;;;;;5051781;28;20060;-64
2021/07/10 01:30:35;;;;;;;18.92;15.52;;;14.30;99.90;;;;;;5051747;28;20039;-64
2021/07/10 01:33:02;;;;;;;21.55;16.77;;;14.30;99.90;;;;;;5052884;28;20066;-64
2021/07/10 01:35:28;;;;;;;23.65;18.20;;;14.30;99.90;;;;;;5037880;28;20099;-64
2021/07/10 01:37:54;;;;;;;22.60;17.55;;;14.20;99.90;;;;;;5052988;28;20040;-64
2021/07/10 01:40:21;;;;;;;22.95;18.70;;;14.10;99.90;;;;;;5052347;28;20564;-64
2021/07/10 01:42:48;;;;;;;21.10;17.45;;;14.10;99.90;;;;;;5040411;28;20131;-64
2021/07/10 01:45:17;;;;;;;20.02;17.20;;;14.10;99.90;;;;;;5052822;28;20091;-64
2021/07/10 01:47:43;;;;;;;24.83;18.33;;;14.10;99.90;;;;;;5052906;28;20418;-64
2021/07/10 01:50:10;;;;;;;23.50;18.42;;;14.00;99.90;;;;;;5052655;28;20483;-64
2021/07/10 01:52:37;;;;;;;23.77;18.25;;;14.00;99.90;;;;;;5052980;28;20486;-64
2021/07/10 01:55:05;;;;;;;20.45;16.67;;;13.90;99.90;;;;;;5052301;28;20596;-64
2021/07/10 01:57:30;;;;;;;18.90;15.82;;;13.80;99.90;;;;;;5052132;28;20037;-64
2021/07/10 01:59:56;;;;;;;21.23;16.98;;;13.90;99.90;;;;;;5050631;28;20044;-64
2021/07/10 02:02:21;;;;;;;17.67;15.80;;;13.80;99.90;;;;;;5052011;28;21112;-64
2021/07/10 02:04:49;;;;;;;19.40;15.88;;;13.80;99.90;;;;;;5048134;28;20076;-64
2021/07/10 02:07:16;;;;;;;19.65;16.88;;;13.70;99.90;;;;;;5052547;28;20382;-64
2021/07/10 02:09:43;;;;;;;17.15;12.80;;;13.60;99.90;;;;;;5052435;28;20100;-64
2021/07/10 02:12:10;;;;;;;15.45;12.88;;;13.50;99.90;;;;;;5051903;28;20049;-64
2021/07/10 02:14:36;;;;;;;12.32;10.55;;;13.50;99.90;;;;;;5050852;28;20449;-64
2021/07/10 02:17:03;;;;;;;14.68;12.52;;;13.50;99.90;;;;;;5050499;28;20079;-63
2021/07/10 02:19:28;;;;;;;15.38;13.15;;;13.50;99.90;;;;;;5051947;28;20041;-63
2021/07/10 02:21:54;;;;;;;17.60;14.40;;;13.40;99.90;;;;;;5045851;28;20036;-63
2021/07/10 02:24:20;;;;;;;15.43;13.20;;;13.40;99.90;;;;;;5051839;28;20463;-63
2021/07/10 02:26:46;;;;;;;15.80;13.88;;;13.40;99.90;;;;;;5051895;28;20402;-63
2021/07/10 02:29:11;;;;;;;19.83;15.60;;;13.40;99.90;;;;;;5051782;28;20052;-63
2021/07/10 02:31:37;;;;;;;17.05;14.48;;;13.40;99.90;;;;;;5051834;28;20036;-64
2021/07/10 02:34:03;;;;;;;19.70;15.23;;;13.40;99.90;;;;;;5049306;28;20048;-64
2021/07/10 02:36:30;;;;;;;35.83;15.50;;;13.40;99.90;;;;;;5051273;28;20079;-64
2021/07/10 02:38:56;;;;;;;17.23;14.10;;;13.30;99.90;;;;;;5051362;28;20171;-64
2021/07/10 02:41:22;;;;;;;15.38;13.77;;;13.20;99.90;;;;;;5051384;28;20589;-64
2021/07/10 02:43:48;;;;;;;15.77;14.02;;;13.20;99.90;;;;;;5063670;28;20045;-64
2021/07/10 02:46:14;;;;;;;19.33;15.75;;;13.20;99.90;;;;;;5051332;28;20045;-63
2021/07/10 02:48:40;;;;;;;17.95;15.45;;;13.20;99.90;;;;;;5042908;28;20033;-63
2021/07/10 02:51:05;;;;;;;16.85;14.38;;;13.20;99.90;;;;;;5041515;28;20398;-63
2021/07/10 02:53:31;;;;;;;19.20;15.88;;;13.20;99.90;;;;;;5050670;28;20118;-63
2021/07/10 02:55:57;;;;;;;18.92;16.48;;;13.20;99.90;;;;;;5050280;28;20044;-63
2021/07/10 02:58:22;;;;;;;19.58;16.20;;;13.20;99.90;;;;;;5050708;28;20045;-63
2021/07/10 03:00:48;;;;;;;20.20;15.57;;;13.10;99.90;;;;;;5050985;28;20047;-64
2021/07/10 03:03:13;;;;;;;19.55;16.35;;;13.20;99.90;;;;;;5049437;28;20032;-63
2021/07/10 03:05:43;;;;;;;17.90;15.55;;;13.20;99.90;;;;;;5049653;28;20047;-63
2021/07/10 03:08:09;;;;;;;19.42;14.80;;;13.20;99.90;;;;;;5050657;28;20044;-63
2021/07/10 03:10:35;;;;;;;18.15;15.32;;;13.20;99.90;;;;;;5051239;28;20120;-63
2021/07/10 03:13:01;;;;;;;18.98;14.07;;;13.20;99.90;;;;;;5051329;28;20116;-63
2021/07/10 03:15:28;;;;;;;14.60;10.55;;;13.10;99.90;;;;;;5049924;28;20045;-63
2021/07/10 03:17:54;;;;;;;80.80;12.77;;;13.20;99.90;;;;;;5050558;28;20041;-63
2021/07/10 03:20:21;;;;;;;43.80;9.88;;;13.10;99.90;;;;;;5050854;28;20363;-63
2021/07/10 03:22:48;;;;;;;33.70;9.95;;;13.00;99.90;;;;;;5031841;28;20116;-63
2021/07/10 03:25:14;;;;;;;26.00;8.07;;;13.00;99.90;;;;;;5043374;28;20037;-63
2021/07/10 03:27:41;;;;;;;17.95;8.13;;;12.90;99.90;;;;;;5049875;28;20094;-63
2021/07/10 03:30:09;;;;;;;27.48;8.48;;;12.90;99.90;;;;;;5050613;28;20036;-63
2021/07/10 03:32:35;;;;;;;8.90;8.18;;;12.80;99.90;;;;;;5049997;28;20100;-63
2021/07/10 03:35:00;;;;;;;8.10;7.30;;;12.80;99.90;;;;;;5050178;28;20451;-63
2021/07/10 03:37:26;;;;;;;10.23;7.18;;;12.80;99.90;;;;;;5050539;28;20045;-63
2021/07/10 03:39:51;;;;;;;8.23;7.43;;;12.80;99.90;;;;;;5049219;28;20077;-63
2021/07/10 03:42:17;;;;;;;7.75;7.15;;;12.80;99.90;;;;;;5053441;28;20029;-63
2021/07/10 03:44:43;;;;;;;7.38;6.78;;;12.80;99.90;;;;;;5059174;28;20041;-63
2021/07/10 03:47:08;;;;;;;7.55;6.80;;;12.80;99.90;;;;;;5050902;28;20094;-63
2021/07/10 03:49:34;;;;;;;13.38;8.70;;;12.80;99.90;;;;;;5050413;28;20369;-63
2021/07/10 03:52:00;;;;;;;16.60;9.60;;;12.70;99.90;;;;;;5050766;28;20098;-63
2021/07/10 03:54:25;;;;;;;17.90;9.95;;;12.70;99.90;;;;;;5050648;28;20100;-63
2021/07/10 03:56:51;;;;;;;91.03;11.35;;;12.60;99.90;;;;;;5049034;28;20434;-63
2021/07/10 03:59:17;;;;;;;53.17;10.35;;;12.60;99.90;;;;;;5050140;28;20068;-64
2021/07/10 04:01:45;;;;;;;18.58;8.75;;;12.60;99.90;;;;;;5050423;28;20107;-64
2021/07/10 04:04:12;;;;;;;57.85;9.63;;;12.60;99.90;;;;;;5050650;28;20143;-64
2021/07/10 04:06:39;;;;;;;49.38;8.60;;;12.50;99.90;;;;;;5043688;28;20075;-64
2021/07/10 04:09:05;;;;;;;85.53;9.88;;;12.50;99.90;;;;;;5050555;28;20821;-64
2021/07/10 04:11:30;;;;;;;26.10;9.65;;;12.40;99.90;;;;;;5050199;28;20041;-64
2021/07/10 04:13:56;;;;;;;16.08;9.70;;;12.50;99.90;;;;;;5050249;28;20475;-64
2021/07/10 04:16:23;;;;;;;14.48;9.00;;;12.70;99.90;;;;;;5048842;28;20075;-63
2021/07/10 04:18:48;;;;;;;11.25;9.15;;;12.80;99.90;;;;;;5050029;28;20049;-63
2021/07/10 04:21:14;;;;;;;8.65;7.85;;;12.90;99.90;;;;;;5049748;28;20092;-63
2021/07/10 04:23:40;;;;;;;9.05;8.25;;;13.10;99.90;;;;;;5045859;28;20033;-63
2021/07/10 04:26:06;;;;;;;9.55;8.57;;;13.20;99.90;;;;;;5050342;28;20064;-63
2021/07/10 04:28:32;;;;;;;10.45;9.45;;;13.40;99.90;;;;;;5050079;28;20028;-63
2021/07/10 04:30:57;;;;;;;9.45;8.48;;;13.60;99.90;;;;;;5049631;28;20052;-63
2021/07/10 04:33:23;;;;;;;10.48;9.38;;;13.70;99.90;;;;;;5049576;28;20041;-63
2021/07/10 04:35:51;;;;;;;11.45;10.35;;;13.80;99.90;;;;;;5049736;28;20080;-63
2021/07/10 04:38:17;;;;;;;10.18;9.27;;;13.90;99.90;;;;;;5050273;28;20073;-63
2021/07/10 04:40:43;;;;;;;11.10;10.10;;;14.00;99.90;;;;;;5049485;28;20053;-64
2021/07/10 04:43:11;;;;;;;12.63;11.27;;;14.10;99.90;;;;;;5050683;28;20079;-64
2021/07/10 04:45:38;;;;;;;12.30;11.13;;;14.20;99.90;;;;;;5053590;28;20041;-63
2021/07/10 04:48:04;;;;;;;12.38;11.18;;;14.30;99.90;;;;;;5048220;28;20075;-63
2021/07/10 04:50:30;;;;;;;12.75;11.45;;;14.40;99.90;;;;;;5039353;28;20083;-63
2021/07/10 04:52:56;;;;;;;14.18;12.75;;;14.50;99.90;;;;;;5044662;28;20045;-64
2021/07/10 04:55:21;;;;;;;14.95;11.82;;;14.60;99.90;;;;;;5049727;28;20087;-62
2021/07/10 04:57:48;;;;;;;12.13;10.90;;;14.70;99.90;;;;;;5053446;28;20049;-62
2021/07/10 05:00:15;;;;;;;11.60;10.50;;;14.80;99.90;;;;;;5053307;28;20494;-62
2021/07/10 05:02:41;;;;;;;11.93;10.77;;;14.90;99.90;;;;;;5053566;28;20037;-62
2021/07/10 05:05:07;;;;;;;12.27;11.18;;;15.10;99.90;;;;;;5051273;28;20095;-62
2021/07/10 05:07:32;;;;;;;15.18;13.57;;;15.30;99.90;;;;;;5052106;28;20045;-62
2021/07/10 05:09:59;;;;;;;19.83;15.70;;;15.60;99.90;;;;;;5036914;28;20628;-61
2021/07/10 05:12:25;;;;;;;20.30;16.67;;;15.80;99.90;;;;;;5053184;28;20094;-62
2021/07/10 05:14:52;;;;;;;21.48;16.23;;;16.00;99.90;;;;;;5053240;28;20041;-62
2021/07/10 05:17:19;;;;;;;18.85;16.05;;;16.10;99.90;;;;;;5053231;28;20045;-62
2021/07/10 05:19:45;;;;;;;23.42;19.23;;;16.20;99.90;;;;;;5052869;28;20044;-62
2021/07/10 05:22:11;;;;;;;22.98;18.45;;;16.30;99.90;;;;;;5048753;28;20036;-62
2021/07/10 05:24:38;;;;;;;21.92;18.58;;;16.30;99.90;;;;;;5053103;28;20060;-62
2021/07/10 05:27:05;;;;;;;25.13;19.52;;;16.30;99.90;;;;;;5042187;28;20051;-66
2021/07/10 05:29:31;;;;;;;24.20;20.13;;;16.20;99.90;;;;;;5035313;28;20048;-66
2021/07/10 05:31:57;;;;;;;24.15;19.55;;;16.20;99.90;;;;;;5052823;28;20454;-66
2021/07/10 05:34:22;;;;;;;24.35;18.60;;;16.30;99.90;;;;;;5052495;28;20037;-67
2021/07/10 05:36:48;;;;;;;27.60;20.60;;;16.40;99.90;;;;;;5051307;28;20107;-66
2021/07/10 05:39:14;;;;;;;26.15;21.08;;;16.50;99.90;;;;;;5052050;28;20032;-66
2021/07/10 05:41:40;;;;;;;23.65;20.30;;;16.60;99.90;;;;;;5052432;28;20449;-66
2021/07/10 05:44:06;;;;;;;26.33;21.75;;;16.70;99.90;;;;;;5047271;28;20037;-66
2021/07/10 05:46:31;;;;;;;25.52;21.05;;;16.80;99.90;;;;;;5038431;28;20037;-66
2021/07/10 05:48:57;;;;;;;28.00;22.27;;;16.90;99.90;;;;;;5037986;28;20047;-66
2021/07/10 05:51:22;;;;;;;24.92;22.10;;;17.10;99.90;;;;;;5041234;28;20482;-67
2021/07/10 05:53:48;;;;;;;25.67;21.23;;;17.10;99.90;;;;;;5042189;28;20647;-67
2021/07/10 05:56:13;;;;;;;23.52;20.10;;;17.70;99.90;;;;;;5051478;28;20478;-67
2021/07/10 05:58:39;;;;;;;18.48;16.48;;;18.90;99.90;;;;;;5031314;28;20046;-67
2021/07/10 06:01:05;;;;;;;21.63;18.95;;;20.30;99.90;;;;;;5047423;28;20468;-67
2021/07/10 06:03:31;;;;;;;22.55;20.25;;;21.40;99.90;;;;;;5052433;28;20037;-66
2021/07/10 06:05:57;;;;;;;19.30;17.13;;;22.40;99.90;;;;;;5052531;28;20037;-66
2021/07/10 06:08:22;;;;;;;18.20;16.30;;;23.30;99.90;;;;;;5052413;28;20056;-67
2021/07/10 06:10:48;;;;;;;19.40;17.50;;;24.00;99.90;;;;;;5049935;28;20053;-67
2021/07/10 06:13:14;;;;;;;15.93;14.32;;;24.70;98.60;;;;;;5043402;28;20506;-67
2021/07/10 06:15:40;;;;;;;17.67;16.08;;;25.50;97.20;;;;;;5048510;28;20037;-67
2021/07/10 06:18:06;;;;;;;14.55;13.05;;;26.00;96.30;;;;;;5051627;28;20048;-67
2021/07/10 06:20:34;;;;;;;14.98;13.52;;;26.50;95.10;;;;;;5051828;28;20273;-68
2021/07/10 06:23:01;;;;;;;15.35;13.95;;;27.10;93.70;;;;;;5051978;28;20040;-67
2021/07/10 06:25:27;;;;;;;15.68;14.27;;;27.60;92.10;;;;;;5052044;28;20044;-67
2021/07/10 06:27:52;;;;;;;16.20;14.65;;;28.10;91.80;;;;;;5052106;28;20051;-67
2021/07/10 06:30:19;;;;;;;13.15;11.93;;;28.10;90.10;;;;;;5036473;28;20371;-67
2021/07/10 06:32:45;;;;;;;13.52;12.30;;;28.50;89.50;;;;;;5044559;28;20083;-67
2021/07/10 06:35:11;;;;;;;14.68;13.38;;;28.60;87.90;;;;;;5036022;28;20399;-68
2021/07/10 06:37:37;;;;;;;13.98;12.57;;;28.40;83.40;;;;;;5049141;28;20071;-67
2021/07/10 06:40:05;;;;;;;12.02;10.93;;;28.80;84.90;;;;;;5051446;28;20061;-67
2021/07/10 06:42:31;;;;;;;12.80;11.70;;;29.00;83.50;;;;;;5051406;28;20024;-67
2021/07/10 06:44:56;;;;;;;11.68;10.68;;;29.10;73.10;;;;;;5049086;28;20821;-67
2021/07/10 06:47:22;;;;;;;14.52;13.02;;;28.90;77.20;;;;;;5049926;28;20045;-67
2021/07/10 06:49:48;;;;;;;13.65;12.45;;;29.40;77.00;;;;;;5051240;28;20048;-67
2021/07/10 06:52:14;;;;;;;17.50;16.00;;;29.70;77.60;;;;;;5039019;28;20037;-67
2021/07/10 06:54:40;;;;;;;14.60;13.30;;;29.30;67.40;;;;;;5015240;28;20034;-67
2021/07/10 06:57:05;;;;;;;18.08;16.45;;;29.40;75.90;;;;;;5033849;28;20596;-67
2021/07/10 06:59:32;;;;;;;16.95;15.48;;;29.00;77.60;;;;;;5031446;28;20103;-67
2021/07/10 07:01:58;;;;;;;17.33;15.85;;;28.30;71.00;;;;;;5051305;28;20033;-67
2021/07/10 07:04:23;;;;;;;15.38;14.07;;;27.80;77.70;;;;;;5051248;28;20432;-67
2021/07/10 07:06:49;;;;;;;18.83;17.13;;;27.30;79.50;;;;;;5051309;28;20056;-67
2021/07/10 07:09:15;;;;;;;17.90;16.40;;;26.90;78.00;;;;;;5048013;28;20029;-67
2021/07/10 07:11:40;;;;;;;18.77;17.08;;;26.70;81.20;;;;;;5050617;28;20039;-67
2021/07/10 07:14:06;;;;;;;18.40;16.80;;;26.20;81.40;;;;;;5050545;28;20056;-67
2021/07/10 07:16:33;;;;;;;20.20;18.30;;;25.50;83.60;;;;;;5032930;28;20499;-68
2021/07/10 07:18:59;;;;;;;19.10;17.40;;;23.60;83.50;;;;;;5051098;28;20855;-67
2021/07/10 07:21:26;;;;;;;20.08;18.23;;;23.90;90.00;;;;;;5042448;28;20048;-68
2021/07/10 07:23:53;;;;;;;19.92;18.13;;;23.80;91.00;;;;;;5031238;28;20071;-68
2021/07/10 07:26:19;;;;;;;21.65;19.65;;;23.70;92.20;;;;;;5046346;28;20037;-68
2021/07/10 07:28:46;;;;;;;20.40;18.52;;;23.50;91.60;;;;;;5051185;28;20041;-68
2021/07/10 07:31:13;;;;;;;20.77;18.83;;;23.20;92.30;;;;;;5046470;28;20037;-67
2021/07/10 07:33:38;;;;;;;21.08;19.08;;;22.90;92.40;;;;;;5050503;28;20072;-68
2021/07/10 07:36:04;;;;;;;21.17;19.27;;;22.70;93.20;;;;;;5049838;28;20091;-68
2021/07/10 07:38:31;;;;;;;24.42;22.08;;;22.40;93.80;;;;;;5050363;28;20048;-67
2021/07/10 07:40:59;;;;;;;23.60;21.25;;;22.00;94.10;;;;;;5049881;28;20045;-68
2021/07/10 07:43:25;;;;;;;23.73;21.38;;;21.50;95.60;;;;;;5050404;28;20037;-68
2021/07/10 07:45:51;;;;;;;20.48;18.48;;;21.20;96.30;;;;;;5049838;28;20098;-67
2021/07/10 07:48:18;;;;;;;20.02;18.13;;;21.30;96.70;;;;;;5050342;28;20381;-67
2021/07/10 07:50:44;;;;;;;21.02;19.02;;;21.40;96.70;;;;;;5049811;28;20098;-68
2021/07/10 07:53:10;;;;;;;23.55;21.15;;;21.40;96.50;;;;;;5041320;28;20068;-67
2021/07/10 07:55:36;;;;;;;22.95;19.92;;;21.10;96.30;;;;;;5061478;22;20100;-63
2021/07/10 07:58:03;;;;;;;22.20;20.00;;;21.30;96.60;;;;;;5030413;28;20052;-63
2021/07/10 08:00:29;;;;;;;20.60;18.55;;;21.30;96.70;;;;;;5028558;28;20039;-63
2021/07/10 08:02:55;;;;;;;20.63;18.52;;;21.20;96.80;;;;;;5028523;28;20116;-63
2021/07/10 08:05:21;;;;;;;20.60;18.58;;;21.10;97.10;;;;;;5034789;28;20398;-63
2021/07/10 08:07:46;;;;;;;18.25;16.45;;;21.00;97.70;;;;;;5031365;28;20049;-63
2021/07/10 08:10:14;;;;;;;19.17;17.27;;;20.80;97.30;;;;;;5023883;28;20044;-63
2021/07/10 08:12:40;;;;;;;18.98;16.83;;;20.70;97.50;;;;;;5029328;28;20422;-63
2021/07/10 08:15:08;;;;;;;17.05;15.25;;;20.50;98.10;;;;;;5029558;28;20099;-63
2021/07/10 08:17:34;;;;;;;18.40;16.42;;;20.30;98.50;;;;;;5029934;28;20057;-63
2021/07/10 08:20:00;;;;;;;17.55;15.75;;;19.90;99.10;;;;;;5032257;28;20533;-62
2021/07/10 08:22:26;;;;;;;18.60;16.63;;;19.80;99.90;;;;;;5033903;28;20049;-62
2021/07/10 08:24:52;;;;;;;19.40;16.30;;;19.80;99.80;;;;;;5034150;28;20048;-63
2021/07/10 08:27:18;;;;;;;18.73;16.73;;;19.70;99.90;;;;;;5033120;28;20037;-63
2021/07/10 08:29:43;;;;;;;19.17;17.17;;;19.50;99.90;;;;;;5032709;28;20104;-63
2021/07/10 08:32:09;;;;;;;19.15;15.98;;;19.50;99.90;;;;;;5034394;28;20167;-62
2021/07/10 08:34:35;;;;;;;18.38;16.27;;;19.50;99.90;;;;;;5033989;28;20626;-63
2021/07/10 08:37:02;;;;;;;19.02;16.58;;;19.50;99.90;;;;;;5033732;28;20120;-62
2021/07/10 08:39:28;;;;;;;23.08;19.33;;;19.40;99.90;;;;;;5031882;28;20634;-63
2021/07/10 08:41:54;;;;;;;21.25;18.85;;;19.30;99.90;;;;;;5033948;28;20099;-63
2021/07/10 08:44:20;;;;;;;19.10;17.08;;;19.40;99.90;;;;;;5044191;28;20418;-63
2021/07/10 08:46:47;;;;;;;18.80;16.92;;;19.30;99.90;;;;;;5032859;28;20069;-64
2021/07/10 08:49:16;;;;;;;21.25;17.55;;;19.40;99.90;;;;;;5033285;28;20054;-64
2021/07/10 08:51:45;;;;;;;18.10;15.90;;;19.50;99.90;;;;;;5033324;28;20060;-64
2021/07/10 08:54:12;;;;;;;17.67;15.85;;;19.60;99.90;;;;;;5033073;28;20025;-63
2021/07/10 08:56:38;;;;;;;23.08;17.23;;;19.70;99.90;;;;;;5015321;28;20124;-64
2021/07/10 08:59:04;;;;;;;17.95;16.05;;;19.90;99.90;;;;;;5032615;28;20029;-64
2021/07/10 09:01:30;;;;;;;16.73;14.93;;;20.00;99.90;;;;;;5033126;28;20402;-64
2021/07/10 09:03:55;;;;;;;17.48;15.20;;;20.00;99.90;;;;;;5031966;28;20415;-64
2021/07/10 09:06:21;;;;;;;18.08;15.75;;;20.10;99.90;;;;;;5040276;28;20063;-63
2021/07/10 09:08:57;;;;;;;16.80;14.98;;;20.00;99.90;;;;;;5033461;28;20092;-64
2021/07/10 09:11:24;;;;;;;15.98;14.25;;;20.20;99.90;;;;;;5033349;28;20048;-64
2021/07/10 09:13:55;;;;;;;14.85;13.27;;;20.40;99.90;;;;;;5015511;28;20083;-64
2021/07/10 09:16:26;;;;;;;17.88;13.57;;;20.60;99.90;;;;;;5021627;28;20034;-64
2021/07/10 09:19:09;;;;;;;13.68;11.88;;;20.80;99.20;;;;;;5023528;28;20037;-64
2021/07/10 09:21:40;;;;;;;18.02;13.73;;;21.00;98.50;;;;;;5036309;28;20042;-64
2021/07/10 09:24:13;;;;;;;15.82;13.55;;;21.20;99.30;;;;;;5032806;28;20490;-64
2021/07/10 09:26:51;;;;;;;14.75;13.00;;;21.50;98.00;;;;;;5032610;28;20056;-64
2021/07/10 09:29:19;;;;;;;15.05;13.55;;;21.30;98.50;;;;;;5032578;28;20045;-64
2021/07/10 09:31:47;;;;;;;15.15;13.57;;;21.40;98.70;;;;;;5031821;28;20040;-64
2021/07/10 09:34:18;;;;;;;16.30;14.52;;;21.10;98.60;;;;;;5032714;28;20080;-64
2021/07/10 09:36:58;;;;;;;17.00;14.43;;;20.60;99.30;;;;;;5026875;28;20083;-64
2021/07/10 09:39:27;;;;;;;14.38;12.82;;;20.30;99.40;;;;;;5026673;28;20050;-63
2021/07/10 09:41:53;;;;;;;13.68;12.13;;;20.40;99.70;;;;;;5032716;28;20384;-64
2021/07/10 09:44:19;;;;;;;13.23;11.93;;;20.40;99.40;;;;;;5032568;28;20386;-64
2021/07/10 09:46:44;;;;;;;15.57;13.65;;;20.50;99.30;;;;;;5031030;28;20037;-63
2021/07/10 09:49:30;;;;;;;16.00;14.23;;;20.50;99.60;;;;;;5032541;28;20138;-64
2021/07/10 09:52:01;;;;;;;15.32;13.82;;;20.40;99.70;;;;;;5028686;28;20038;-63
2021/07/10 09:54:32;;;;;;;14.65;13.15;;;20.40;99.90;;;;;;5031675;28;20486;-63
2021/07/10 09:57:03;;;;;;;14.60;13.20;;;20.20;99.90;;;;;;5021585;28;20076;-63
2021/07/10 09:59:28;;;;;;;15.10;12.65;;;20.20;99.90;;;;;;5030217;28;20116;-63
2021/07/10 10:01:54;;;;;;;13.98;12.35;;;20.00;99.90;;;;;;5026034;28;20529;-63
2021/07/10 10:04:22;;;;;;;14.57;13.10;;;20.00;99.90;;;;;;5022824;28;20033;-63
2021/07/10 10:06:48;;;;;;;14.43;12.88;;;20.00;99.90;;;;;;5044536;28;20045;-63
2021/07/10 10:09:26;;;;;;;15.20;13.25;;;19.90;99.90;;;;;;5042187;28;20044;-62
2021/07/10 10:11:53;;;;;;;15.38;13.98;;;20.00;99.90;;;;;;5031767;28;20040;-62
2021/07/10 10:14:20;;;;;;;16.08;14.45;;;20.00;99.90;;;;;;5031758;28;20036;-62
2021/07/10 10:16:49;;;;;;;14.68;13.18;;;20.00;99.90;;;;;;5030239;28;20501;-63
2021/07/10 10:19:20;;;;;;;15.00;13.43;;;20.00;99.90;;;;;;5029659;28;20037;-63
2021/07/10 10:21:49;;;;;;;13.93;12.27;;;20.00;99.90;;;;;;5030523;28;20046;-63
2021/07/10 10:24:16;;;;;;;16.67;14.95;;;20.00;99.90;;;;;;5030667;28;20037;-62
2021/07/10 10:26:43;;;;;;;16.90;14.95;;;20.00;99.90;;;;;;5023632;28;20386;-63
2021/07/10 10:29:10;;;;;;;15.70;14.10;;;20.00;99.90;;;;;;5031788;28;20128;-63
2021/07/10 10:31:38;;;;;;;13.60;12.20;;;20.00;99.90;;;;;;5007669;28;20033;-62
2021/07/10 10:34:06;;;;;;;13.77;12.40;;;20.00;99.90;;;;;;5029885;28;20485;-63
2021/07/10 10:36:34;;;;;;;13.70;12.30;;;20.00;99.90;;;;;;5010079;28;20056;-62
2021/07/10 10:39:00;;;;;;;13.50;12.13;;;20.10;99.90;;;;;;5031419;28;20045;-62
2021/07/10 10:41:26;;;;;;;15.60;13.10;;;20.10;99.90;;;;;;5029751;28;20087;-63
2021/07/10 10:43:55;;;;;;;14.52;13.02;;;20.20;99.90;;;;;;5031208;28;20041;-63
2021/07/10 10:46:24;;;;;;;14.70;13.20;;;20.10;99.90;;;;;;5029088;28;20045;-62
2021/07/10 10:48:52;;;;;;;15.07;13.57;;;20.10;99.90;;;;;;5030921;28;20037;-63
2021/07/10 10:51:33;;;;;;;15.27;13.70;;;20.10;99.90;;;;;;5031326;28;20173;-63
2021/07/10 10:54:28;;;;;;;14.82;13.25;;;20.10;99.90;;;;;;5028328;28;20456;-63
2021/07/10 10:56:54;;;;;;;14.55;13.02;;;20.30;99.90;;;;;;5035845;28;20087;-63
2021/07/10 10:59:33;;;;;;;16.05;14.48;;;20.50;99.90;;;;;;5030478;28;20099;-63
2021/07/10 11:01:59;;;;;;;15.35;13.45;;;20.60;99.90;;;;;;5026314;28;20034;-63
2021/07/10 11:04:43;;;;;;;14.55;12.60;;;20.90;99.90;;;;;;5029190;28;20038;-64
2021/07/10 11:07:28;;;;;;;12.43;11.23;;;20.80;98.60;;;;;;5019075;28;20483;-65
2021/07/10 11:10:03;;;;;;;12.05;10.70;;;21.10;98.00;;;;;;5030874;28;20090;-64
2021/07/10 11:12:47;;;;;;;13.20;11.90;;;20.90;97.40;;;;;;5031354;28;20060;-65
2021/07/10 11:15:25;;;;;;;12.30;11.10;;;21.20;98.30;;;;;;5031328;28;20049;-65
2021/07/10 11:17:55;;;;;;;12.55;11.32;;;20.90;97.00;;;;;;5040943;28;20041;-65
2021/07/10 11:20:50;;;;;;;13.82;11.93;;;21.10;98.20;;;;;;5011595;28;20053;-65
2021/07/10 11:23:34;;;;;;;12.98;11.45;;;21.50;98.60;;;;;;5024088;28;20042;-65
2021/07/10 11:26:26;;;;;;;11.85;10.65;;;21.80;97.10;;;;;;5031098;28;20130;-65
2021/07/10 11:28:52;;;;;;;;;;;22.10;97.00;;;;;;5028684;28;20455;-65
2021/07/10 11:31:30;;;;;;;13.98;12.57;;;22.40;96.00;;;;;;5029526;28;19925;-65
2021/07/10 11:34:07;;;;;;;12.38;11.18;;;22.50;96.10;;;;;;5027197;28;20112;-65
2021/07/10 11:36:40;;;;;;;11.65;10.32;;;22.40;95.90;;;;;;5031034;28;20710;-67
2021/07/10 11:39:26;;;;;;;12.40;11.10;;;22.60;96.30;;;;;;5030870;28;20141;-68
2021/07/10 11:41:57;;;;;;;11.68;10.50;;;22.90;93.10;;;;;;5031097;28;20037;-67
2021/07/10 11:44:28;;;;;;;11.33;10.13;;;22.80;92.40;;;;;;5050405;28;20041;-67
2021/07/10 11:46:56;;;;;;;10.77;9.67;;;22.80;92.40;;;;;;5049807;28;20049;-67
2021/07/10 11:49:40;;;;;;;11.27;9.93;;;22.80;94.40;;;;;;5034172;28;20299;-67
2021/07/10 11:52:17;;;;;;;11.43;10.07;;;22.80;92.90;;;;;;5014269;28;20041;-67
2021/07/10 11:54:51;;;;;;;9.43;8.52;;;22.80;94.30;;;;;;5034542;28;20053;-67
2021/07/10 11:57:18;;;;;;;11.35;10.25;;;23.10;94.00;;;;;;5035128;28;20402;-67
2021/07/10 11:59:44;;;;;;;11.65;10.48;;;23.30;94.00;;;;;;5034404;28;20106;-67
2021/07/10 12:02:16;;;;;;;10.52;9.50;;;23.50;93.70;;;;;;5034098;28;20650;-67
2021/07/10 12:05:10;;;;;;;10.32;9.32;;;23.50;93.20;;;;;;5032166;28;20033;-67
2021/07/10 12:07:41;;;;;;;10.00;9.00;;;23.40;92.50;;;;;;5020508;28;20167;-67
2021/07/10 12:10:20;;;;;;;9.90;8.95;;;23.30;92.60;;;;;;5048535;28;20631;-67
2021/07/10 12:13:00;;;;;;;10.60;9.60;;;23.40;92.30;;;;;;5054175;28;20033;-67
2021/07/10 12:15:30;;;;;;;9.43;8.50;;;23.40;93.20;;;;;;5053697;28;20116;-67
2021/07/10 12:17:58;;;;;;;9.90;8.90;;;23.60;93.70;;;;;;5053919;28;20214;-67
2021/07/10 12:20:30;;;;;;;9.55;8.65;;;23.80;93.70;;;;;;5038314;28;20033;-67
2021/07/10 12:23:04;;;;;;;8.75;8.05;;;24.10;92.90;;;;;;5034256;28;20559;-67
2021/07/10 12:25:34;;;;;;;9.73;8.38;;;24.30;93.30;;;;;;5032004;28;20041;-67
2021/07/10 12:28:03;;;;;;;8.93;8.13;;;24.50;91.60;;;;;;5032324;28;20422;-67
2021/07/10 12:30:41;;;;;;;9.77;8.75;;;24.60;91.30;;;;;;5033579;28;20041;-67